createdAt,value
2018-03-06T00:00:48.859Z,17.08
2018-03-06T00:03:17.146Z,17.40
2018-03-06T00:05:45.382Z,16.60
2018-03-06T00:08:12.867Z,16.10
2018-03-06T00:10:40.335Z,16.42
2018-03-06T00:13:08.582Z,16.42
2018-03-06T00:15:36.059Z,16.20
2018-03-06T00:18:03.539Z,15.73
2018-03-06T00:20:31.039Z,15.32
2018-03-06T00:22:58.543Z,16.42
2018-03-06T00:25:26.783Z,14.00
2018-03-06T00:27:54.266Z,16.37
2018-03-06T00:30:21.746Z,15.27
2018-03-06T00:32:49.988Z,14.43
2018-03-06T00:35:17.560Z,16.40
2018-03-06T00:37:45.830Z,16.35
2018-03-06T00:40:14.072Z,16.93
2018-03-06T00:42:41.579Z,16.10
2018-03-06T00:45:09.055Z,17.12
2018-03-06T00:47:36.594Z,15.13
2018-03-06T00:50:04.151Z,16.77
2018-03-06T00:52:31.635Z,14.30
2018-03-06T00:54:59.142Z,14.90
2018-03-06T00:57:26.627Z,16.30
2018-03-06T00:59:54.182Z,15.57
2018-03-06T01:02:21.672Z,16.37
2018-03-06T01:04:49.920Z,14.85
2018-03-06T01:07:17.400Z,15.60
2018-03-06T01:09:45.655Z,15.27
2018-03-06T01:12:13.916Z,16.42
2018-03-06T01:14:41.420Z,17.17
2018-03-06T01:17:08.955Z,15.88
2018-03-06T01:19:37.222Z,16.52
2018-03-06T01:22:04.791Z,16.85
2018-03-06T01:24:33.054Z,15.10
2018-03-06T01:27:00.623Z,14.03
2018-03-06T01:29:28.752Z,16.20
2018-03-06T01:31:56.230Z,15.68
2018-03-06T01:34:23.810Z,15.85
2018-03-06T01:36:51.374Z,14.35
2018-03-06T01:39:18.947Z,16.90
2018-03-06T01:41:47.198Z,18.25
2018-03-06T01:44:14.678Z,16.33
2018-03-06T01:46:42.946Z,15.23
2018-03-06T01:49:11.218Z,15.18
2018-03-06T01:51:50.688Z,17.90
2018-03-06T01:54:18.186Z,15.63
2018-03-06T01:56:45.691Z,16.02
2018-03-06T01:59:13.933Z,16.27
2018-03-06T02:01:41.418Z,17.48
2018-03-06T02:04:09.664Z,15.97
2018-03-06T02:06:37.151Z,14.38
2018-03-06T02:09:05.435Z,16.50
2018-03-06T02:11:33.703Z,16.40
2018-03-06T02:14:01.268Z,17.60
2018-03-06T02:16:29.527Z,14.68
2018-03-06T02:18:57.091Z,15.70
2018-03-06T02:21:24.663Z,16.70
2018-03-06T02:23:52.939Z,15.23
2018-03-06T02:26:21.190Z,15.43
2018-03-06T02:28:48.672Z,15.90
2018-03-06T02:31:16.927Z,17.42
2018-03-06T02:33:44.414Z,16.87
2018-03-06T02:36:12.663Z,16.57
2018-03-06T02:38:40.141Z,15.40
2018-03-06T02:41:07.633Z,16.62
2018-03-06T02:43:35.110Z,18.52
2018-03-06T02:46:10.507Z,17.70
2018-03-06T02:48:38.754Z,17.15
2018-03-06T02:51:06.700Z,18.00
2018-03-06T02:53:34.222Z,17.62
2018-03-06T02:56:02.488Z,18.25
2018-03-06T02:58:30.730Z,18.33
2018-03-06T03:00:58.230Z,18.58
2018-03-06T03:03:26.476Z,18.00
2018-03-06T03:05:55.496Z,17.60
2018-03-06T03:08:23.739Z,17.30
2018-03-06T03:10:51.336Z,19.55
2018-03-06T03:13:19.596Z,18.55
2018-03-06T03:15:47.108Z,18.02
2018-03-06T03:18:14.623Z,17.40
2018-03-06T03:20:42.874Z,19.12
2018-03-06T03:23:10.367Z,19.27
2018-03-06T03:25:38.627Z,21.00
2018-03-06T03:28:06.134Z,18.20
2018-03-06T03:30:33.615Z,18.87
2018-03-06T03:33:01.104Z,19.12
2018-03-06T03:35:28.666Z,17.37
2018-03-06T03:37:56.155Z,17.75
2018-03-06T03:40:23.635Z,20.20
2018-03-06T03:42:51.127Z,18.85
2018-03-06T03:45:18.702Z,19.27
2018-03-06T03:47:46.969Z,19.20
2018-03-06T03:50:14.455Z,20.55
2018-03-06T03:52:42.723Z,22.33
2018-03-06T03:55:10.987Z,18.95
2018-03-06T03:57:38.494Z,20.12
2018-03-06T04:00:05.965Z,20.52
2018-03-06T04:02:34.078Z,20.20
2018-03-06T04:05:01.631Z,19.17
2018-03-06T04:07:29.119Z,20.48
2018-03-06T04:09:57.730Z,19.73
2018-03-06T04:12:25.221Z,21.05
2018-03-06T04:14:52.695Z,21.35
2018-03-06T04:17:20.195Z,21.17
2018-03-06T04:19:48.421Z,21.65
2018-03-06T04:22:15.913Z,21.48
2018-03-06T04:24:43.389Z,20.70
2018-03-06T04:27:11.268Z,21.37
2018-03-06T04:29:38.752Z,20.67
2018-03-06T04:32:06.249Z,19.42
2018-03-06T04:34:34.499Z,20.90
2018-03-06T04:37:02.743Z,21.17
2018-03-06T04:39:30.229Z,21.30
2018-03-06T04:41:57.702Z,21.00
2018-03-06T04:44:25.188Z,23.42
2018-03-06T04:46:53.470Z,21.60
2018-03-06T04:49:20.951Z,22.42
2018-03-06T04:51:48.470Z,22.00
2018-03-06T04:54:15.924Z,22.58
2018-03-06T04:56:44.158Z,23.75
2018-03-06T04:59:11.746Z,25.10
2018-03-06T05:01:39.223Z,22.90
2018-03-06T05:04:07.473Z,26.27
2018-03-06T05:06:34.940Z,25.90
2018-03-06T05:09:03.191Z,21.90
2018-03-06T05:11:30.780Z,25.42
2018-03-06T05:13:59.042Z,26.15
2018-03-06T05:16:26.516Z,26.30
2018-03-06T05:18:54.810Z,25.55
2018-03-06T05:21:22.238Z,27.77
2018-03-06T05:23:49.716Z,26.27
2018-03-06T05:26:17.961Z,25.75
2018-03-06T05:28:45.438Z,27.90
2018-03-06T05:31:13.014Z,31.15
2018-03-06T05:33:41.366Z,29.92
2018-03-06T05:36:08.843Z,27.70
2018-03-06T05:38:37.090Z,37.28
2018-03-06T05:41:04.677Z,35.72
2018-03-06T05:43:32.925Z,29.58
2018-03-06T05:46:00.413Z,30.02
2018-03-06T05:48:28.773Z,29.98
2018-03-06T05:50:56.261Z,32.28
2018-03-06T05:53:24.878Z,31.50
2018-03-06T05:55:52.362Z,40.20
2018-03-06T05:58:19.831Z,39.58
2018-03-06T06:00:47.318Z,35.90
2018-03-06T06:03:15.563Z,33.50
2018-03-06T06:05:43.081Z,37.25
2018-03-06T06:08:10.561Z,38.45
2018-03-06T06:10:38.041Z,39.03
2018-03-06T06:13:06.346Z,36.45
2018-03-06T06:15:34.593Z,42.50
2018-03-06T06:18:02.065Z,41.45
2018-03-06T06:20:29.546Z,37.63
2018-03-06T06:22:57.781Z,36.90
2018-03-06T06:25:25.265Z,35.22
2018-03-06T06:27:53.530Z,37.75
2018-03-06T06:30:21.020Z,38.30
2018-03-06T06:32:48.492Z,31.73
2018-03-06T06:35:15.966Z,35.03
2018-03-06T06:37:43.455Z,36.17
2018-03-06T06:40:11.031Z,33.92
2018-03-06T06:42:38.504Z,36.40
2018-03-06T06:45:06.768Z,37.85
2018-03-06T06:47:34.335Z,34.78
2018-03-06T06:50:02.580Z,35.15
2018-03-06T06:52:30.154Z,35.30
2018-03-06T06:54:57.713Z,35.53
2018-03-06T06:57:25.187Z,35.83
2018-03-06T06:59:53.547Z,37.15
2018-03-06T07:02:21.017Z,39.38
2018-03-06T07:04:49.553Z,40.50
2018-03-06T07:07:17.027Z,41.10
2018-03-06T07:09:44.515Z,40.10
2018-03-06T07:12:12.787Z,40.78
2018-03-06T07:14:40.345Z,39.88
2018-03-06T07:17:07.823Z,43.45
2018-03-06T07:19:36.063Z,45.12
2018-03-06T07:22:03.626Z,45.72
2018-03-06T07:24:31.914Z,43.47
2018-03-06T07:26:59.398Z,54.30
2018-03-06T07:29:27.643Z,66.50
2018-03-06T07:31:55.131Z,64.97
2018-03-06T07:34:23.384Z,66.03
2018-03-06T07:36:50.942Z,64.20
2018-03-06T07:39:18.506Z,68.20
2018-03-06T07:41:46.004Z,66.47
2018-03-06T07:44:13.476Z,70.62
2018-03-06T07:46:40.987Z,73.60
2018-03-06T07:49:08.454Z,71.47
2018-03-06T07:51:36.702Z,65.32
2018-03-06T07:54:04.180Z,68.37
2018-03-06T07:56:32.454Z,68.47
2018-03-06T07:58:59.924Z,67.03
2018-03-06T08:01:28.170Z,68.90
2018-03-06T08:03:55.638Z,73.77
2018-03-06T08:06:23.891Z,69.03
2018-03-06T08:08:51.385Z,69.40
2018-03-06T08:11:18.866Z,69.83
2018-03-06T08:13:46.343Z,68.70
2018-03-06T08:16:13.833Z,69.73
2018-03-06T08:18:41.285Z,66.60
2018-03-06T08:21:08.774Z,63.70
2018-03-06T08:23:36.246Z,72.93
2018-03-06T08:26:04.490Z,72.60
2018-03-06T08:28:32.057Z,71.23
2018-03-06T08:30:59.537Z,73.82
2018-03-06T08:33:27.791Z,71.93
2018-03-06T08:35:55.270Z,73.17
2018-03-06T08:38:22.846Z,69.90
2018-03-06T08:40:50.371Z,75.50
2018-03-06T08:43:17.844Z,72.80
2018-03-06T08:45:45.406Z,77.33
2018-03-06T08:48:13.647Z,73.40
2018-03-06T08:50:41.151Z,70.40
2018-03-06T08:53:09.383Z,71.63
2018-03-06T08:55:36.864Z,79.17
2018-03-06T08:58:04.340Z,67.50
2018-03-06T09:00:32.581Z,70.53
2018-03-06T09:03:00.051Z,68.63
2018-03-06T09:05:27.598Z,70.57
2018-03-06T09:07:55.063Z,66.37
2018-03-06T09:10:22.619Z,68.07
2018-03-06T09:12:50.187Z,69.37
2018-03-06T09:15:17.742Z,69.30
2018-03-06T09:17:45.205Z,72.27
2018-03-06T09:20:12.682Z,67.60
2018-03-06T09:22:40.928Z,68.13
2018-03-06T09:25:08.402Z,68.13
2018-03-06T09:27:35.866Z,65.90
2018-03-06T09:30:03.350Z,65.33
2018-03-06T09:32:31.609Z,62.03
2018-03-06T09:34:59.851Z,64.27
2018-03-06T09:37:27.324Z,62.40
2018-03-06T09:39:54.806Z,66.93
2018-03-06T09:42:23.056Z,62.97
2018-03-06T09:44:50.539Z,66.40
2018-03-06T09:47:18.079Z,62.50
2018-03-06T09:49:45.566Z,63.10
2018-03-06T09:52:13.810Z,64.77
2018-03-06T09:54:42.802Z,64.17
2018-03-06T09:57:10.258Z,60.87
2018-03-06T09:59:37.752Z,64.40
2018-03-06T10:02:06.030Z,63.80
2018-03-06T10:04:34.257Z,66.03
2018-03-06T10:07:01.864Z,61.87
2018-03-06T10:09:30.134Z,63.07
2018-03-06T10:11:58.390Z,60.80
2018-03-06T10:14:25.990Z,63.03
2018-03-06T10:16:54.312Z,57.20
2018-03-06T10:19:21.779Z,60.90
2018-03-06T10:21:49.282Z,65.03
2018-03-06T10:24:17.550Z,62.10
2018-03-06T10:26:45.858Z,60.60
2018-03-06T10:29:13.348Z,58.30
2018-03-06T10:31:40.846Z,59.07
2018-03-06T10:34:09.104Z,55.70
2018-03-06T10:36:36.666Z,56.40
2018-03-06T10:39:04.131Z,58.50
2018-03-06T10:41:32.418Z,62.80
2018-03-06T10:44:00.676Z,59.53
2018-03-06T10:46:28.259Z,59.70
2018-03-06T10:48:56.524Z,60.73
2018-03-06T10:51:24.115Z,58.73
2018-03-06T10:53:51.612Z,64.00
2018-03-06T10:56:19.118Z,58.40
2018-03-06T10:58:47.394Z,59.00
2018-03-06T11:01:21.422Z,58.30
2018-03-06T11:03:48.960Z,56.97
2018-03-06T11:06:17.198Z,59.67
2018-03-06T11:08:44.683Z,57.60
2018-03-06T11:11:12.924Z,58.13
2018-03-06T11:13:40.427Z,60.83
2018-03-06T11:16:08.665Z,58.40
2018-03-06T11:18:36.138Z,65.23
2018-03-06T11:21:03.620Z,61.30
2018-03-06T11:23:31.853Z,61.10
2018-03-06T11:25:59.446Z,60.63
2018-03-06T11:28:26.912Z,60.73
2018-03-06T11:30:55.168Z,64.53
2018-03-06T11:33:22.722Z,61.30
2018-03-06T11:35:50.994Z,66.20
2018-03-06T11:38:18.474Z,66.57
2018-03-06T11:40:45.952Z,68.83
2018-03-06T11:43:14.561Z,67.87
2018-03-06T11:45:42.019Z,67.57
2018-03-06T11:48:09.495Z,67.83
2018-03-06T11:50:36.962Z,67.37
2018-03-06T11:53:04.450Z,62.40
2018-03-06T11:55:31.923Z,63.40
2018-03-06T11:58:00.163Z,64.53
2018-03-06T12:00:27.643Z,62.80
2018-03-06T12:02:55.123Z,63.10
2018-03-06T12:05:23.396Z,62.67
2018-03-06T12:07:51.635Z,62.90
2018-03-06T12:10:19.094Z,61.87
2018-03-06T12:12:46.587Z,65.10
2018-03-06T12:15:14.844Z,66.33
2018-03-06T12:17:42.396Z,67.00
2018-03-06T12:20:09.864Z,65.30
2018-03-06T12:22:38.112Z,71.87
2018-03-06T12:25:05.580Z,65.00
2018-03-06T12:27:33.059Z,64.97
2018-03-06T12:30:00.529Z,64.03
2018-03-06T12:32:28.791Z,66.27
2018-03-06T12:34:56.342Z,65.83
2018-03-06T12:37:23.819Z,68.37
2018-03-06T12:39:52.057Z,65.83
2018-03-06T12:42:19.544Z,64.80
2018-03-06T12:44:47.095Z,66.43
2018-03-06T12:47:14.595Z,66.30
2018-03-06T12:49:42.074Z,68.57
2018-03-06T12:52:09.550Z,63.37
2018-03-06T12:54:37.019Z,66.80
2018-03-06T12:57:04.599Z,62.17
2018-03-06T12:59:32.070Z,67.77
2018-03-06T13:02:00.333Z,64.13
2018-03-06T13:04:28.234Z,67.17
2018-03-06T13:06:55.705Z,62.87
2018-03-06T13:09:23.182Z,73.10
2018-03-06T13:11:50.685Z,65.67
2018-03-06T13:14:18.155Z,67.93
2018-03-06T13:16:46.397Z,61.90
2018-03-06T13:19:13.877Z,67.07
2018-03-06T13:21:41.354Z,64.17
2018-03-06T13:24:09.582Z,64.60
2018-03-06T13:26:37.079Z,62.20
2018-03-06T13:29:05.321Z,61.43
2018-03-06T13:31:32.890Z,61.60
2018-03-06T13:34:00.368Z,63.73
2018-03-06T13:36:28.602Z,65.27
2018-03-06T13:38:56.085Z,66.63
2018-03-06T13:41:23.551Z,62.00
2018-03-06T13:43:51.034Z,63.03
2018-03-06T13:46:19.259Z,64.40
2018-03-06T13:48:46.846Z,64.17
2018-03-06T13:51:14.342Z,64.20
2018-03-06T13:53:41.824Z,65.43
2018-03-06T13:56:09.319Z,62.77
2018-03-06T13:58:36.875Z,61.50
2018-03-06T14:01:04.359Z,59.40
2018-03-06T14:03:32.720Z,62.13
2018-03-06T14:06:00.195Z,60.60
2018-03-06T14:08:28.435Z,58.50
2018-03-06T14:10:55.911Z,62.70
2018-03-06T14:13:24.277Z,60.17
2018-03-06T14:15:51.754Z,64.07
2018-03-06T14:18:19.234Z,64.07
2018-03-06T14:20:46.763Z,58.70
2018-03-06T14:23:14.235Z,59.40
2018-03-06T14:25:42.466Z,60.43
2018-03-06T14:28:09.970Z,59.00
2018-03-06T14:30:38.250Z,59.03
2018-03-06T14:33:06.502Z,60.00
2018-03-06T14:35:33.983Z,64.40
2018-03-06T14:38:02.250Z,58.00
2018-03-06T14:40:29.707Z,60.03
2018-03-06T14:42:57.198Z,60.43
2018-03-06T14:45:24.662Z,59.80
2018-03-06T14:47:52.142Z,60.87
2018-03-06T14:50:19.638Z,59.73
2018-03-06T14:52:47.131Z,59.70
2018-03-06T14:55:14.603Z,60.60
2018-03-06T14:57:42.098Z,64.63
2018-03-06T15:00:09.675Z,61.40
2018-03-06T15:02:37.150Z,63.80
2018-03-06T15:05:05.413Z,64.23
2018-03-06T15:07:32.886Z,62.33
2018-03-06T15:10:01.152Z,62.97
2018-03-06T15:12:28.623Z,63.23
2018-03-06T15:14:56.857Z,63.60
2018-03-06T15:17:24.334Z,63.30
2018-03-06T15:19:51.894Z,60.20
2018-03-06T15:22:19.375Z,59.60
2018-03-06T15:24:47.627Z,63.37
2018-03-06T15:27:15.086Z,62.13
2018-03-06T15:29:43.333Z,59.00
2018-03-06T15:32:10.814Z,63.40
2018-03-06T15:34:38.302Z,63.80
2018-03-06T15:37:06.547Z,64.77
2018-03-06T15:39:34.110Z,63.07
2018-03-06T15:42:18.602Z,64.20
2018-03-06T15:44:46.850Z,64.10
2018-03-06T15:47:14.319Z,60.77
2018-03-06T15:49:41.801Z,61.30
2018-03-06T15:52:10.039Z,61.03
2018-03-06T15:54:37.614Z,57.20
2018-03-06T15:57:05.072Z,60.93
2018-03-06T15:59:33.389Z,60.20
2018-03-06T16:02:00.851Z,60.50
2018-03-06T16:04:28.335Z,62.40
2018-03-06T16:06:55.846Z,58.00
2018-03-06T16:09:23.328Z,59.00
2018-03-06T16:11:50.795Z,59.40
2018-03-06T16:14:18.274Z,56.73
2018-03-06T16:16:45.745Z,56.63
2018-03-06T16:19:13.415Z,56.50
2018-03-06T16:21:40.790Z,57.90
2018-03-06T16:24:09.026Z,57.27
2018-03-06T16:26:36.494Z,57.77
2018-03-06T16:29:03.977Z,56.60
2018-03-06T16:31:31.526Z,56.77
2018-03-06T16:33:59.082Z,60.00
2018-03-06T16:36:26.551Z,58.00
2018-03-06T16:38:54.020Z,54.67
2018-03-06T16:41:22.293Z,55.77
2018-03-06T16:43:50.541Z,56.67
2018-03-06T16:46:18.007Z,64.03
2018-03-06T16:48:45.519Z,57.30
2018-03-06T16:51:12.974Z,59.50
2018-03-06T16:53:40.447Z,57.67
2018-03-06T16:56:07.919Z,63.60
2018-03-06T16:58:35.402Z,58.47
2018-03-06T17:01:02.890Z,59.70
2018-03-06T17:03:31.239Z,60.83
2018-03-06T17:05:58.798Z,57.27
2018-03-06T17:08:26.281Z,57.93
2018-03-06T17:10:54.522Z,57.73
2018-03-06T17:13:22.090Z,57.80
2018-03-06T17:15:49.582Z,56.13
2018-03-06T17:18:17.826Z,56.97
2018-03-06T17:20:45.332Z,59.40
2018-03-06T17:23:12.855Z,58.23
2018-03-06T17:25:40.296Z,59.40
2018-03-06T17:28:07.754Z,57.03
2018-03-06T17:30:35.314Z,54.93
2018-03-06T17:33:02.786Z,53.17
2018-03-06T17:35:30.269Z,57.30
2018-03-06T17:37:58.514Z,56.13
2018-03-06T17:40:25.982Z,53.07
2018-03-06T17:42:53.474Z,53.47
2018-03-06T17:45:20.945Z,54.60
2018-03-06T17:47:48.419Z,50.63
2018-03-06T17:50:16.596Z,55.23
2018-03-06T17:52:44.062Z,59.47
2018-03-06T17:55:11.546Z,56.00
2018-03-06T17:57:39.955Z,53.30
2018-03-06T18:00:07.486Z,56.97
2018-03-06T18:02:34.954Z,56.93
2018-03-06T18:05:03.221Z,54.97
2018-03-06T18:07:30.689Z,55.93
2018-03-06T18:09:58.930Z,51.40
2018-03-06T18:12:26.546Z,55.40
2018-03-06T18:14:53.994Z,54.70
2018-03-06T18:17:22.238Z,54.40
2018-03-06T18:19:49.725Z,50.20
2018-03-06T18:22:17.958Z,55.37
2018-03-06T18:24:45.434Z,52.60
2018-03-06T18:27:12.902Z,53.20
2018-03-06T18:29:40.451Z,54.30
2018-03-06T18:32:07.917Z,55.40
2018-03-06T18:34:35.390Z,55.93
2018-03-06T18:37:03.618Z,53.33
2018-03-06T18:39:31.107Z,54.13
2018-03-06T18:41:58.561Z,52.40
2018-03-06T18:44:26.036Z,53.67
2018-03-06T18:46:54.270Z,54.43
2018-03-06T18:49:21.742Z,52.57
2018-03-06T18:51:49.210Z,54.73
2018-03-06T18:54:16.678Z,52.97
2018-03-06T18:56:44.149Z,54.00
2018-03-06T18:59:12.410Z,52.07
2018-03-06T19:02:15.303Z,54.33
2018-03-06T19:04:54.578Z,55.87
2018-03-06T19:07:22.090Z,56.67
2018-03-06T19:09:49.564Z,51.73
2018-03-06T19:12:17.802Z,59.57
2018-03-06T19:14:45.279Z,52.10
2018-03-06T19:17:12.745Z,54.50
2018-03-06T19:19:40.260Z,54.77
2018-03-06T19:22:07.810Z,56.33
2018-03-06T19:24:35.299Z,58.17
2018-03-06T19:27:02.775Z,55.43
2018-03-06T19:29:30.250Z,55.03
2018-03-06T19:31:58.494Z,54.20
2018-03-06T19:34:25.953Z,56.17
2018-03-06T19:36:53.432Z,57.10
2018-03-06T19:39:20.926Z,56.03
2018-03-06T19:41:48.459Z,54.97
2018-03-06T19:44:16.747Z,56.83
2018-03-06T19:46:44.991Z,58.00
2018-03-06T19:49:12.554Z,59.00
2018-03-06T19:51:40.113Z,58.83
2018-03-06T19:54:07.582Z,55.97
2018-03-06T19:56:35.075Z,60.20
2018-03-06T19:59:02.543Z,61.63
2018-03-06T20:01:30.026Z,57.47
2018-03-06T20:03:57.490Z,57.20
2018-03-06T20:06:24.966Z,60.70
2018-03-06T20:08:52.438Z,56.90
2018-03-06T20:11:19.987Z,58.33
2018-03-06T20:13:53.587Z,58.30
2018-03-06T20:16:21.051Z,55.57
2018-03-06T20:18:54.179Z,57.60
2018-03-06T20:21:21.659Z,60.93
2018-03-06T20:23:49.129Z,57.20
2018-03-06T20:26:16.623Z,55.67
2018-03-06T20:28:44.098Z,57.57
2018-03-06T20:31:18.103Z,59.67
2018-03-06T20:33:46.363Z,59.70
2018-03-06T20:36:13.835Z,58.57
2018-03-06T20:38:47.839Z,60.50
2018-03-06T20:41:15.388Z,61.77
2018-03-06T20:43:43.827Z,60.33
2018-03-06T20:46:17.083Z,58.00
2018-03-06T20:48:45.318Z,58.50
2018-03-06T20:51:12.890Z,57.47
2018-03-06T20:53:45.987Z,57.50
2018-03-06T20:56:13.549Z,59.67
2018-03-06T20:58:41.038Z,57.00
2018-03-06T21:01:09.290Z,61.40
2018-03-06T21:03:36.903Z,57.27
2018-03-06T21:06:04.422Z,60.67
2018-03-06T21:08:32.649Z,59.87
2018-03-06T21:11:00.154Z,57.13
2018-03-06T21:13:27.653Z,60.00
2018-03-06T21:15:55.163Z,61.10
2018-03-06T21:18:23.418Z,60.07
2018-03-06T21:20:50.904Z,59.50
2018-03-06T21:23:18.375Z,59.53
2018-03-06T21:25:46.625Z,58.47
2018-03-06T21:28:14.191Z,60.03
2018-03-06T21:30:41.650Z,56.53
2018-03-06T21:33:09.127Z,63.83
2018-03-06T21:35:37.373Z,56.97
2018-03-06T21:38:04.862Z,58.93
2018-03-06T21:40:33.129Z,60.77
2018-03-06T21:43:00.570Z,57.67
2018-03-06T21:45:28.034Z,58.80
2018-03-06T21:47:55.522Z,60.43
2018-03-06T21:50:23.754Z,62.73
2018-03-06T21:52:51.238Z,58.57
2018-03-06T21:55:19.479Z,59.17
2018-03-06T21:57:46.986Z,58.90
2018-03-06T22:00:15.219Z,59.60
2018-03-06T22:02:42.682Z,57.27
2018-03-06T22:05:10.184Z,61.37
2018-03-06T22:07:38.422Z,62.50
2018-03-06T22:10:05.892Z,59.80
2018-03-06T22:12:33.370Z,57.40
2018-03-06T22:15:01.610Z,62.87
2018-03-06T22:17:29.098Z,59.87
2018-03-06T22:19:57.326Z,60.07
2018-03-06T22:22:24.802Z,58.60
2018-03-06T22:24:52.267Z,63.30
2018-03-06T22:27:19.741Z,63.40
2018-03-06T22:29:47.991Z,63.10
2018-03-06T22:32:15.492Z,64.30
2018-03-06T22:34:43.730Z,62.70
2018-03-06T22:37:11.398Z,67.43
2018-03-06T22:39:38.902Z,63.13
2018-03-06T22:42:06.387Z,61.40
2018-03-06T22:44:33.890Z,61.53
2018-03-06T22:47:01.370Z,63.97
2018-03-06T22:49:29.613Z,67.50
2018-03-06T22:51:57.089Z,60.33
2018-03-06T22:54:25.352Z,66.80
2018-03-06T22:56:52.831Z,62.20
2018-03-06T22:59:21.063Z,65.23
2018-03-06T23:01:48.638Z,65.40
2018-03-06T23:04:16.198Z,63.87
2018-03-06T23:06:43.676Z,67.23
2018-03-06T23:09:11.912Z,64.77
2018-03-06T23:11:39.398Z,63.77
2018-03-06T23:14:06.958Z,68.77
2018-03-06T23:16:34.436Z,70.57
2018-03-06T23:19:02.676Z,70.23
2018-03-06T23:21:30.177Z,65.73
2018-03-06T23:23:58.415Z,66.87
2018-03-06T23:26:25.874Z,62.73
2018-03-06T23:28:53.346Z,65.00
2018-03-06T23:31:20.899Z,63.87
2018-03-06T23:33:48.389Z,61.57
2018-03-06T23:36:16.610Z,62.87
2018-03-06T23:38:44.087Z,62.60
2018-03-06T23:41:11.654Z,61.83
2018-03-06T23:43:39.131Z,62.10
2018-03-06T23:46:07.366Z,62.43
2018-03-06T23:48:34.847Z,63.03
2018-03-06T23:51:02.323Z,64.20
2018-03-06T23:53:30.566Z,65.13
2018-03-06T23:55:58.033Z,65.30
2018-03-06T23:58:25.599Z,65.17
